sensor_id;sensor_type;location;lat;lon;timestamp;temperature;humidity
60242;SHT30;46103;52.076;113.488;2023-03-19T00:57:42;1.85;34.11
60242;SHT30;46103;52.076;113.488;2023-03-19T01:00:46;2.06;33.40
60242;SHT30;46103;52.076;113.488;2023-03-19T01:03:50;2.37;33.22
60242;SHT30;46103;52.076;113.488;2023-03-19T01:06:53;2.53;32.72
60242;SHT30;46103;52.076;113.488;2023-03-19T01:09:57;2.75;33.48
60242;SHT30;46103;52.076;113.488;2023-03-19T01:13:00;2.88;32.57
60242;SHT30;46103;52.076;113.488;2023-03-19T01:16:04;3.08;32.69
60242;SHT30;46103;52.076;113.488;2023-03-19T01:19:09;3.19;31.53
60242;SHT30;46103;52.076;113.488;2023-03-19T01:22:13;3.30;31.51
60242;SHT30;46103;52.076;113.488;2023-03-19T01:25:29;3.50;31.28
60242;SHT30;46103;52.076;113.488;2023-03-19T01:28:36;3.60;30.65
60242;SHT30;46103;52.076;113.488;2023-03-19T01:31:39;3.61;30.88
60242;SHT30;46103;52.076;113.488;2023-03-19T01:35:07;3.71;30.38
60242;SHT30;46103;52.076;113.488;2023-03-19T01:38:12;3.79;30.65
60242;SHT30;46103;52.076;113.488;2023-03-19T01:41:16;3.94;30.09
60242;SHT30;46103;52.076;113.488;2023-03-19T01:44:27;4.05;29.92
60242;SHT30;46103;52.076;113.488;2023-03-19T01:48:05;4.16;29.89
60242;SHT30;46103;52.076;113.488;2023-03-19T01:51:27;4.30;31.39
60242;SHT30;46103;52.076;113.488;2023-03-19T01:54:37;4.40;29.54
60242;SHT30;46103;52.076;113.488;2023-03-19T01:58:00;4.47;28.97
60242;SHT30;46103;52.076;113.488;2023-03-19T02:01:35;4.64;28.89
60242;SHT30;46103;52.076;113.488;2023-03-19T02:04:42;4.77;28.72
60242;SHT30;46103;52.076;113.488;2023-03-19T02:07:48;4.89;28.44
60242;SHT30;46103;52.076;113.488;2023-03-19T02:10:52;4.85;28.26
60242;SHT30;46103;52.076;113.488;2023-03-19T02:13:58;4.96;28.60
60242;SHT30;46103;52.076;113.488;2023-03-19T02:17:03;5.12;28.17
60242;SHT30;46103;52.076;113.488;2023-03-19T02:20:29;5.28;27.96
60242;SHT30;46103;52.076;113.488;2023-03-19T02:23:46;5.50;27.70
60242;SHT30;46103;52.076;113.488;2023-03-19T02:26:59;5.66;27.38
60242;SHT30;46103;52.076;113.488;2023-03-19T02:30:28;5.84;27.13
60242;SHT30;46103;52.076;113.488;2023-03-19T02:33:42;5.90;27.22
60242;SHT30;46103;52.076;113.488;2023-03-19T02:36:56;6.12;26.83
60242;SHT30;46103;52.076;113.488;2023-03-19T02:40:12;6.40;26.49
60242;SHT30;46103;52.076;113.488;2023-03-19T02:43:17;6.44;26.31
60242;SHT30;46103;52.076;113.488;2023-03-19T02:46:20;6.57;26.31
60242;SHT30;46103;52.076;113.488;2023-03-19T02:49:23;6.84;26.06
60242;SHT30;46103;52.076;113.488;2023-03-19T02:52:28;7.01;25.90
60242;SHT30;46103;52.076;113.488;2023-03-19T02:55:32;7.04;25.88
60242;SHT30;46103;52.076;113.488;2023-03-19T02:58:36;7.22;25.63
60242;SHT30;46103;52.076;113.488;2023-03-19T03:01:39;7.53;25.56
60242;SHT30;46103;52.076;113.488;2023-03-19T03:04:42;7.70;25.23
60242;SHT30;46103;52.076;113.488;2023-03-19T03:07:45;7.84;25.53
60242;SHT30;46103;52.076;113.488;2023-03-19T03:10:50;8.18;23.97
60242;SHT30;46103;52.076;113.488;2023-03-19T03:13:54;8.48;23.74
60242;SHT30;46103;52.076;113.488;2023-03-19T03:16:58;8.36;24.35
60242;SHT30;46103;52.076;113.488;2023-03-19T03:20:03;8.39;24.25
60242;SHT30;46103;52.076;113.488;2023-03-19T03:23:06;8.67;24.23
60242;SHT30;46103;52.076;113.488;2023-03-19T03:26:10;8.74;24.03
60242;SHT30;46103;52.076;113.488;2023-03-19T03:29:15;8.94;23.55
60242;SHT30;46103;52.076;113.488;2023-03-19T03:32:19;8.85;23.42
60242;SHT30;46103;52.076;113.488;2023-03-19T03:39:00;9.00;23.32
60242;SHT30;46103;52.076;113.488;2023-03-19T03:42:04;9.01;23.28
60242;SHT30;46103;52.076;113.488;2023-03-19T03:45:10;8.84;23.67
60242;SHT30;46103;52.076;113.488;2023-03-19T03:48:15;8.91;23.48
60242;SHT30;46103;52.076;113.488;2023-03-19T03:51:21;9.00;23.66
60242;SHT30;46103;52.076;113.488;2023-03-19T03:54:25;9.18;23.08
60242;SHT30;46103;52.076;113.488;2023-03-19T03:57:28;9.18;23.40
60242;SHT30;46103;52.076;113.488;2023-03-19T04:00:32;9.28;23.68
60242;SHT30;46103;52.076;113.488;2023-03-19T04:03:36;9.04;23.26
60242;SHT30;46103;52.076;113.488;2023-03-19T04:06:41;8.97;23.52
60242;SHT30;46103;52.076;113.488;2023-03-19T04:10:04;9.21;23.71
60242;SHT30;46103;52.076;113.488;2023-03-19T04:13:10;9.24;23.37
60242;SHT30;46103;52.076;113.488;2023-03-19T04:16:14;9.18;23.48
60242;SHT30;46103;52.076;113.488;2023-03-19T04:19:18;8.94;23.75
60242;SHT30;46103;52.076;113.488;2023-03-19T04:22:22;8.87;24.09
60242;SHT30;46103;52.076;113.488;2023-03-19T04:25:26;8.94;24.19
60242;SHT30;46103;52.076;113.488;2023-03-19T04:28:30;9.15;24.00
60242;SHT30;46103;52.076;113.488;2023-03-19T04:31:33;9.15;23.89
60242;SHT30;46103;52.076;113.488;2023-03-19T04:34:37;9.08;23.97
60242;SHT30;46103;52.076;113.488;2023-03-19T04:37:40;9.15;24.04
60242;SHT30;46103;52.076;113.488;2023-03-19T04:40:54;9.39;23.97
60242;SHT30;46103;52.076;113.488;2023-03-19T04:43:59;9.32;24.07
60242;SHT30;46103;52.076;113.488;2023-03-19T04:47:04;9.43;23.73
60242;SHT30;46103;52.076;113.488;2023-03-19T04:50:21;9.57;24.05
60242;SHT30;46103;52.076;113.488;2023-03-19T04:53:27;9.64;23.60
60242;SHT30;46103;52.076;113.488;2023-03-19T04:56:31;10.10;23.31
60242;SHT30;46103;52.076;113.488;2023-03-19T04:59:35;10.04;23.06
60242;SHT30;46103;52.076;113.488;2023-03-19T05:02:40;10.07;23.21
60242;SHT30;46103;52.076;113.488;2023-03-19T05:05:44;10.19;23.19
60242;SHT30;46103;52.076;113.488;2023-03-19T05:08:48;10.32;22.82
60242;SHT30;46103;52.076;113.488;2023-03-19T05:11:53;10.52;22.71
60242;SHT30;46103;52.076;113.488;2023-03-19T05:14:57;10.46;22.77
60242;SHT30;46103;52.076;113.488;2023-03-19T05:18:09;10.39;23.01
60242;SHT30;46103;52.076;113.488;2023-03-19T05:21:17;10.46;23.01
60242;SHT30;46103;52.076;113.488;2023-03-19T05:24:20;10.39;23.01
60242;SHT30;46103;52.076;113.488;2023-03-19T05:27:25;10.14;23.17
60242;SHT30;46103;52.076;113.488;2023-03-19T05:30:36;10.01;23.48
60242;SHT30;46103;52.076;113.488;2023-03-19T05:34:03;9.94;23.49
60242;SHT30;46103;52.076;113.488;2023-03-19T05:37:10;10.05;23.58
60242;SHT30;46103;52.076;113.488;2023-03-19T05:40:21;10.17;23.43
60242;SHT30;46103;52.076;113.488;2023-03-19T05:43:26;10.31;23.60
60242;SHT30;46103;52.076;113.488;2023-03-19T05:46:31;10.49;23.53
60242;SHT30;46103;52.076;113.488;2023-03-19T05:49:35;10.75;23.09
60242;SHT30;46103;52.076;113.488;2023-03-19T05:52:39;10.83;23.11
60242;SHT30;46103;52.076;113.488;2023-03-19T05:55:45;10.73;22.93
60242;SHT30;46103;52.076;113.488;2023-03-19T05:58:48;10.63;23.10
60242;SHT30;46103;52.076;113.488;2023-03-19T06:01:58;10.83;23.04
60242;SHT30;46103;52.076;113.488;2023-03-19T06:05:03;11.07;22.89
60242;SHT30;46103;52.076;113.488;2023-03-19T06:08:06;10.99;22.81
60242;SHT30;46103;52.076;113.488;2023-03-19T06:11:33;10.97;22.92
60242;SHT30;46103;52.076;113.488;2023-03-19T06:15:00;11.06;23.03
60242;SHT30;46103;52.076;113.488;2023-03-19T06:18:24;11.01;22.75
60242;SHT30;46103;52.076;113.488;2023-03-19T06:21:29;11.17;22.69
60242;SHT30;46103;52.076;113.488;2023-03-19T06:24:36;11.31;22.50
60242;SHT30;46103;52.076;113.488;2023-03-19T06:27:39;11.34;22.32
60242;SHT30;46103;52.076;113.488;2023-03-19T06:30:57;11.41;22.50
60242;SHT30;46103;52.076;113.488;2023-03-19T06:34:37;11.68;22.19
60242;SHT30;46103;52.076;113.488;2023-03-19T06:37:43;11.98;22.04
60242;SHT30;46103;52.076;113.488;2023-03-19T06:40:47;12.13;21.89
60242;SHT30;46103;52.076;113.488;2023-03-19T06:43:51;12.31;21.52
60242;SHT30;46103;52.076;113.488;2023-03-19T06:46:55;12.51;21.31
60242;SHT30;46103;52.076;113.488;2023-03-19T06:50:00;12.40;21.50
60242;SHT30;46103;52.076;113.488;2023-03-19T06:53:05;12.63;21.43
60242;SHT30;46103;52.076;113.488;2023-03-19T06:56:08;12.90;21.68
60242;SHT30;46103;52.076;113.488;2023-03-19T06:59:13;12.95;21.05
60242;SHT30;46103;52.076;113.488;2023-03-19T07:02:18;12.85;21.40
60242;SHT30;46103;52.076;113.488;2023-03-19T07:05:21;12.88;20.98
60242;SHT30;46103;52.076;113.488;2023-03-19T07:08:25;12.95;20.97
60242;SHT30;46103;52.076;113.488;2023-03-19T07:11:32;13.31;21.03
60242;SHT30;46103;52.076;113.488;2023-03-19T07:14:37;13.61;20.60
60242;SHT30;46103;52.076;113.488;2023-03-19T07:17:44;13.34;20.63
60242;SHT30;46103;52.076;113.488;2023-03-19T07:20:48;13.41;20.68
60242;SHT30;46103;52.076;113.488;2023-03-19T07:23:55;13.13;21.28
60242;SHT30;46103;52.076;113.488;2023-03-19T07:26:58;13.36;21.09
60242;SHT30;46103;52.076;113.488;2023-03-19T07:30:02;13.41;20.99
60242;SHT30;46103;52.076;113.488;2023-03-19T07:33:07;13.53;20.74
60242;SHT30;46103;52.076;113.488;2023-03-19T07:36:11;13.82;20.77
60242;SHT30;46103;52.076;113.488;2023-03-19T07:39:14;13.90;20.28
60242;SHT30;46103;52.076;113.488;2023-03-19T07:42:18;14.19;19.76
60242;SHT30;46103;52.076;113.488;2023-03-19T07:45:22;14.45;19.40
60242;SHT30;46103;52.076;113.488;2023-03-19T07:48:26;14.77;19.27
60242;SHT30;46103;52.076;113.488;2023-03-19T07:51:30;15.03;18.97
60242;SHT30;46103;52.076;113.488;2023-03-19T07:54:33;15.06;18.92
60242;SHT30;46103;52.076;113.488;2023-03-19T07:57:38;15.64;18.37
60242;SHT30;46103;52.076;113.488;2023-03-19T08:00:41;15.87;18.40
60242;SHT30;46103;52.076;113.488;2023-03-19T08:03:45;15.90;18.17
60242;SHT30;46103;52.076;113.488;2023-03-19T08:06:50;16.23;18.17
60242;SHT30;46103;52.076;113.488;2023-03-19T08:09:54;16.64;18.17
60242;SHT30;46103;52.076;113.488;2023-03-19T08:12:59;16.39;18.25
60242;SHT30;46103;52.076;113.488;2023-03-19T08:16:03;16.66;17.99
60242;SHT30;46103;52.076;113.488;2023-03-19T08:19:07;16.88;17.46
60242;SHT30;46103;52.076;113.488;2023-03-19T08:22:12;16.85;17.61
60242;SHT30;46103;52.076;113.488;2023-03-19T08:25:16;16.52;17.81
60242;SHT30;46103;52.076;113.488;2023-03-19T08:28:20;16.87;17.57
60242;SHT30;46103;52.076;113.488;2023-03-19T08:31:24;16.85;17.31
60242;SHT30;46103;52.076;113.488;2023-03-19T08:34:28;17.15;17.35
60242;SHT30;46103;52.076;113.488;2023-03-19T08:37:32;16.98;17.60
60242;SHT30;46103;52.076;113.488;2023-03-19T08:40:35;16.95;17.41
60242;SHT30;46103;52.076;113.488;2023-03-19T08:43:40;16.85;17.73
60242;SHT30;46103;52.076;113.488;2023-03-19T08:46:44;17.23;17.49
60242;SHT30;46103;52.076;113.488;2023-03-19T10:21:59;13.57;20.55
60242;SHT30;46103;52.076;113.488;2023-03-19T10:25:10;13.21;20.95
60242;SHT30;46103;52.076;113.488;2023-03-19T10:28:18;13.02;21.30
60242;SHT30;46103;52.076;113.488;2023-03-19T10:31:29;12.44;21.94
60242;SHT30;46103;52.076;113.488;2023-03-19T10:34:42;11.93;22.39
60242;SHT30;46103;52.076;113.488;2023-03-19T10:37:48;11.51;22.91
60242;SHT30;46103;52.076;113.488;2023-03-19T10:44:09;10.86;23.61
60242;SHT30;46103;52.076;113.488;2023-03-19T10:47:16;10.63;23.87
60242;SHT30;46103;52.076;113.488;2023-03-19T10:50:33;10.42;24.24
60242;SHT30;46103;52.076;113.488;2023-03-19T10:53:38;10.22;24.70
60242;SHT30;46103;52.076;113.488;2023-03-19T10:56:45;9.98;24.86
60242;SHT30;46103;52.076;113.488;2023-03-19T10:59:49;9.74;25.12
60242;SHT30;46103;52.076;113.488;2023-03-19T11:02:55;9.50;25.57
60242;SHT30;46103;52.076;113.488;2023-03-19T11:06:08;9.29;25.88
60242;SHT30;46103;52.076;113.488;2023-03-19T11:12:33;9.01;27.58
60242;SHT30;46103;52.076;113.488;2023-03-19T11:15:39;8.83;28.49
60242;SHT30;46103;52.076;113.488;2023-03-19T11:18:46;8.71;28.53
60242;SHT30;46103;52.076;113.488;2023-03-19T11:22:07;8.56;28.79
60242;SHT30;46103;52.076;113.488;2023-03-19T11:25:25;8.42;28.91
60242;SHT30;46103;52.076;113.488;2023-03-19T11:28:29;8.21;29.56
60242;SHT30;46103;52.076;113.488;2023-03-19T11:31:44;8.01;30.22
60242;SHT30;46103;52.076;113.488;2023-03-19T11:34:59;7.85;30.92
60242;SHT30;46103;52.076;113.488;2023-03-19T11:38:09;7.73;30.80
60242;SHT30;46103;52.076;113.488;2023-03-19T11:45:24;7.53;31.39
60242;SHT30;46103;52.076;113.488;2023-03-19T11:52:20;7.26;31.47
60242;SHT30;46103;52.076;113.488;2023-03-19T11:55:30;7.15;31.60
60242;SHT30;46103;52.076;113.488;2023-03-19T12:08:57;6.64;31.85
60242;SHT30;46103;52.076;113.488;2023-03-19T12:22:19;6.47;31.82
60242;SHT30;46103;52.076;113.488;2023-03-19T12:25:50;6.42;32.24
60242;SHT30;46103;52.076;113.488;2023-03-19T12:36:03;6.04;33.21
60242;SHT30;46103;52.076;113.488;2023-03-19T12:39:10;5.95;32.81
60242;SHT30;46103;52.076;113.488;2023-03-19T12:42:18;5.85;33.05
60242;SHT30;46103;52.076;113.488;2023-03-19T12:45:37;5.60;33.70
60242;SHT30;46103;52.076;113.488;2023-03-19T12:52:17;5.60;32.64
60242;SHT30;46103;52.076;113.488;2023-03-19T12:55:36;5.61;32.88
60242;SHT30;46103;52.076;113.488;2023-03-19T13:02:00;5.49;33.86
60242;SHT30;46103;52.076;113.488;2023-03-19T13:05:37;5.35;33.77
60242;SHT30;46103;52.076;113.488;2023-03-19T13:09:02;5.30;33.93
60242;SHT30;46103;52.076;113.488;2023-03-19T13:12:28;5.18;34.41
60242;SHT30;46103;52.076;113.488;2023-03-19T13:15:40;5.08;34.81
60242;SHT30;46103;52.076;113.488;2023-03-19T13:18:57;5.02;34.82
60242;SHT30;46103;52.076;113.488;2023-03-19T13:22:09;5.02;34.85
60242;SHT30;46103;52.076;113.488;2023-03-19T13:25:16;4.96;35.24
60242;SHT30;46103;52.076;113.488;2023-03-19T13:28:35;4.89;35.48
60242;SHT30;46103;52.076;113.488;2023-03-19T13:31:40;4.82;35.51
60242;SHT30;46103;52.076;113.488;2023-03-19T13:34:43;4.91;34.43
60242;SHT30;46103;52.076;113.488;2023-03-19T13:37:54;4.98;34.30
60242;SHT30;46103;52.076;113.488;2023-03-19T13:40:59;4.98;34.95
60242;SHT30;46103;52.076;113.488;2023-03-19T13:50:49;4.95;35.99
60242;SHT30;46103;52.076;113.488;2023-03-19T14:04:14;4.46;36.91
60242;SHT30;46103;52.076;113.488;2023-03-19T14:07:24;4.42;36.73
60242;SHT30;46103;52.076;113.488;2023-03-19T14:10:30;4.44;36.57
60242;SHT30;46103;52.076;113.488;2023-03-19T14:13:40;4.47;36.59
60242;SHT30;46103;52.076;113.488;2023-03-19T14:16:48;4.53;34.90
60242;SHT30;46103;52.076;113.488;2023-03-19T14:19:55;4.72;34.77
60242;SHT30;46103;52.076;113.488;2023-03-19T14:26:18;4.80;34.33
60242;SHT30;46103;52.076;113.488;2023-03-19T14:29:24;4.77;34.76
60242;SHT30;46103;52.076;113.488;2023-03-19T14:32:34;4.72;35.17
60242;SHT30;46103;52.076;113.488;2023-03-19T14:35:41;4.68;35.72
60242;SHT30;46103;52.076;113.488;2023-03-19T14:38:57;4.60;34.68
60242;SHT30;46103;52.076;113.488;2023-03-19T14:42:13;4.67;35.15
60242;SHT30;46103;52.076;113.488;2023-03-19T14:48:49;4.61;35.88
60242;SHT30;46103;52.076;113.488;2023-03-19T14:55:15;4.47;36.70
60242;SHT30;46103;52.076;113.488;2023-03-19T14:58:20;4.32;37.31
60242;SHT30;46103;52.076;113.488;2023-03-19T15:01:26;4.23;37.52
60242;SHT30;46103;52.076;113.488;2023-03-19T15:04:30;4.25;36.83
60242;SHT30;46103;52.076;113.488;2023-03-19T15:07:41;4.12;37.20
60242;SHT30;46103;52.076;113.488;2023-03-19T15:17:38;3.98;37.78
60242;SHT30;46103;52.076;113.488;2023-03-19T15:20:45;3.98;37.57
60242;SHT30;46103;52.076;113.488;2023-03-19T15:23:54;3.91;37.83
60242;SHT30;46103;52.076;113.488;2023-03-19T15:26:58;3.82;37.81
60242;SHT30;46103;52.076;113.488;2023-03-19T15:30:08;3.82;37.79
60242;SHT30;46103;52.076;113.488;2023-03-19T15:33:33;3.73;38.57
60242;SHT30;46103;52.076;113.488;2023-03-19T15:36:44;3.70;37.56
60242;SHT30;46103;52.076;113.488;2023-03-19T15:39:50;3.77;38.02
60242;SHT30;46103;52.076;113.488;2023-03-19T15:42:59;3.67;37.63
60242;SHT30;46103;52.076;113.488;2023-03-19T15:46:04;3.60;38.32
60242;SHT30;46103;52.076;113.488;2023-03-19T15:52:19;3.51;38.76
60242;SHT30;46103;52.076;113.488;2023-03-19T15:55:24;3.46;38.46
60242;SHT30;46103;52.076;113.488;2023-03-19T15:58:31;3.46;38.17
60242;SHT30;46103;52.076;113.488;2023-03-19T16:01:39;3.39;38.38
60242;SHT30;46103;52.076;113.488;2023-03-19T16:04:45;3.30;38.76
60242;SHT30;46103;52.076;113.488;2023-03-19T16:08:20;3.26;39.10
60242;SHT30;46103;52.076;113.488;2023-03-19T16:11:28;3.22;39.40
60242;SHT30;46103;52.076;113.488;2023-03-19T16:14:41;3.18;39.28
60242;SHT30;46103;52.076;113.488;2023-03-19T16:17:46;3.06;39.36
60242;SHT30;46103;52.076;113.488;2023-03-19T16:21:15;3.03;39.36
60242;SHT30;46103;52.076;113.488;2023-03-19T16:24:29;2.93;39.99
60242;SHT30;46103;52.076;113.488;2023-03-19T16:27:36;2.84;40.61
60242;SHT30;46103;52.076;113.488;2023-03-19T16:30:45;2.65;41.01
60242;SHT30;46103;52.076;113.488;2023-03-19T16:33:50;2.58;41.13
60242;SHT30;46103;52.076;113.488;2023-03-19T16:36:56;2.55;40.92
60242;SHT30;46103;52.076;113.488;2023-03-19T16:40:14;2.53;41.29
60242;SHT30;46103;52.076;113.488;2023-03-19T16:43:32;2.53;41.17
60242;SHT30;46103;52.076;113.488;2023-03-19T16:46:39;2.41;41.34
60242;SHT30;46103;52.076;113.488;2023-03-19T16:49:45;2.50;41.07
60242;SHT30;46103;52.076;113.488;2023-03-19T16:52:49;2.38;41.63
60242;SHT30;46103;52.076;113.488;2023-03-19T16:55:54;2.34;41.72
60242;SHT30;46103;52.076;113.488;2023-03-19T16:59:00;2.20;42.21
60242;SHT30;46103;52.076;113.488;2023-03-19T17:02:14;2.13;42.49
60242;SHT30;46103;52.076;113.488;2023-03-19T17:05:18;2.10;42.66
60242;SHT30;46103;52.076;113.488;2023-03-19T17:08:21;2.01;42.97
60242;SHT30;46103;52.076;113.488;2023-03-19T17:11:39;1.92;43.26
60242;SHT30;46103;52.076;113.488;2023-03-19T17:14:46;1.85;43.96
60242;SHT30;46103;52.076;113.488;2023-03-19T17:17:51;1.91;43.53
60242;SHT30;46103;52.076;113.488;2023-03-19T17:21:06;1.98;43.56
60242;SHT30;46103;52.076;113.488;2023-03-19T17:24:37;2.02;42.99
60242;SHT30;46103;52.076;113.488;2023-03-19T17:27:41;2.01;42.94
60242;SHT30;46103;52.076;113.488;2023-03-19T17:30:45;1.96;42.97
60242;SHT30;46103;52.076;113.488;2023-03-19T17:33:50;2.01;43.01
60242;SHT30;46103;52.076;113.488;2023-03-19T17:36:56;2.01;43.76
60242;SHT30;46103;52.076;113.488;2023-03-19T17:40:01;2.01;43.94
60242;SHT30;46103;52.076;113.488;2023-03-19T17:43:07;1.98;44.23
60242;SHT30;46103;52.076;113.488;2023-03-19T17:46:16;1.92;44.43
60242;SHT30;46103;52.076;113.488;2023-03-19T17:49:39;1.89;44.82
60242;SHT30;46103;52.076;113.488;2023-03-19T17:52:44;1.92;44.00
60242;SHT30;46103;52.076;113.488;2023-03-19T17:55:50;2.03;42.71
60242;SHT30;46103;52.076;113.488;2023-03-19T17:58:54;2.17;42.46
60242;SHT30;46103;52.076;113.488;2023-03-19T18:01:57;2.25;42.25
60242;SHT30;46103;52.076;113.488;2023-03-19T18:05:02;2.19;43.00
60242;SHT30;46103;52.076;113.488;2023-03-19T18:08:05;2.17;42.81
60242;SHT30;46103;52.076;113.488;2023-03-19T18:11:11;2.17;42.47
60242;SHT30;46103;52.076;113.488;2023-03-19T18:14:14;2.16;42.38
60242;SHT30;46103;52.076;113.488;2023-03-19T18:17:18;2.13;41.95
60242;SHT30;46103;52.076;113.488;2023-03-19T18:20:34;2.16;41.77
60242;SHT30;46103;52.076;113.488;2023-03-19T18:23:39;2.17;41.58
60242;SHT30;46103;52.076;113.488;2023-03-19T18:26:42;2.16;41.75
60242;SHT30;46103;52.076;113.488;2023-03-19T18:29:45;2.05;41.98
60242;SHT30;46103;52.076;113.488;2023-03-19T18:32:55;1.91;41.97
60242;SHT30;46103;52.076;113.488;2023-03-19T18:35:58;1.79;42.10
60242;SHT30;46103;52.076;113.488;2023-03-19T18:39:05;1.70;42.38
60242;SHT30;46103;52.076;113.488;2023-03-19T18:42:12;1.67;42.31
60242;SHT30;46103;52.076;113.488;2023-03-19T18:45:16;1.75;42.10
60242;SHT30;46103;52.076;113.488;2023-03-19T18:48:26;1.78;41.93
60242;SHT30;46103;52.076;113.488;2023-03-19T18:51:31;1.83;41.73
60242;SHT30;46103;52.076;113.488;2023-03-19T18:54:34;1.88;41.65
60242;SHT30;46103;52.076;113.488;2023-03-19T18:57:41;1.88;41.96
60242;SHT30;46103;52.076;113.488;2023-03-19T19:00:54;1.83;42.30
60242;SHT30;46103;52.076;113.488;2023-03-19T19:03:59;1.79;42.30
60242;SHT30;46103;52.076;113.488;2023-03-19T19:07:03;1.78;42.37
60242;SHT30;46103;52.076;113.488;2023-03-19T19:10:08;1.75;42.36
60242;SHT30;46103;52.076;113.488;2023-03-19T19:13:15;1.70;42.47
60242;SHT30;46103;52.076;113.488;2023-03-19T19:16:41;1.68;42.50
60242;SHT30;46103;52.076;113.488;2023-03-19T19:19:45;1.65;42.48
60242;SHT30;46103;52.076;113.488;2023-03-19T19:22:48;1.67;42.47
60242;SHT30;46103;52.076;113.488;2023-03-19T19:25:53;1.64;42.55
60242;SHT30;46103;52.076;113.488;2023-03-19T19:28:58;1.61;42.70
60242;SHT30;46103;52.076;113.488;2023-03-19T19:32:03;1.57;42.54
60242;SHT30;46103;52.076;113.488;2023-03-19T19:35:24;1.57;42.46
60242;SHT30;46103;52.076;113.488;2023-03-19T19:38:28;1.58;42.06
60242;SHT30;46103;52.076;113.488;2023-03-19T19:41:32;1.58;42.01
60242;SHT30;46103;52.076;113.488;2023-03-19T19:44:36;1.61;41.91
60242;SHT30;46103;52.076;113.488;2023-03-19T19:47:40;1.61;41.90
60242;SHT30;46103;52.076;113.488;2023-03-19T19:50:46;1.67;41.63
60242;SHT30;46103;52.076;113.488;2023-03-19T19:53:51;1.68;41.66
60242;SHT30;46103;52.076;113.488;2023-03-19T19:56:55;1.72;41.75
60242;SHT30;46103;52.076;113.488;2023-03-19T19:59:59;1.74;41.43
60242;SHT30;46103;52.076;113.488;2023-03-19T20:03:21;1.74;41.62
60242;SHT30;46103;52.076;113.488;2023-03-19T20:06:25;1.65;41.99
60242;SHT30;46103;52.076;113.488;2023-03-19T20:09:30;1.61;42.24
60242;SHT30;46103;52.076;113.488;2023-03-19T20:12:34;1.61;42.25
60242;SHT30;46103;52.076;113.488;2023-03-19T20:15:38;1.57;42.35
60242;SHT30;46103;52.076;113.488;2023-03-19T20:18:42;1.50;42.52
60242;SHT30;46103;52.076;113.488;2023-03-19T20:21:47;1.47;42.35
60242;SHT30;46103;52.076;113.488;2023-03-19T20:24:50;1.44;42.33
60242;SHT30;46103;52.076;113.488;2023-03-19T20:27:55;1.44;42.54
60242;SHT30;46103;52.076;113.488;2023-03-19T20:31:02;1.41;42.32
60242;SHT30;46103;52.076;113.488;2023-03-19T20:34:13;1.41;42.37
60242;SHT30;46103;52.076;113.488;2023-03-19T20:37:30;1.40;42.46
60242;SHT30;46103;52.076;113.488;2023-03-19T20:40:41;1.36;42.55
60242;SHT30;46103;52.076;113.488;2023-03-19T20:43:46;1.33;42.64
60242;SHT30;46103;52.076;113.488;2023-03-19T20:46:49;1.27;42.60
60242;SHT30;46103;52.076;113.488;2023-03-19T20:49:53;1.30;42.93
60242;SHT30;46103;52.076;113.488;2023-03-19T20:52:57;1.27;43.03
60242;SHT30;46103;52.076;113.488;2023-03-19T20:56:13;1.24;43.26
60242;SHT30;46103;52.076;113.488;2023-03-19T20:59:21;1.22;43.35
60242;SHT30;46103;52.076;113.488;2023-03-19T21:02:24;1.17;44.26
60242;SHT30;46103;52.076;113.488;2023-03-19T21:05:36;1.17;44.30
60242;SHT30;46103;52.076;113.488;2023-03-19T21:08:42;1.07;44.39
60242;SHT30;46103;52.076;113.488;2023-03-19T21:11:47;0.96;44.93
60242;SHT30;46103;52.076;113.488;2023-03-19T21:14:51;0.86;45.45
60242;SHT30;46103;52.076;113.488;2023-03-19T21:17:55;0.85;45.90
60242;SHT30;46103;52.076;113.488;2023-03-19T21:20:59;0.71;46.18
60242;SHT30;46103;52.076;113.488;2023-03-19T21:24:14;0.68;46.36
60242;SHT30;46103;52.076;113.488;2023-03-19T21:27:22;0.61;46.73
60242;SHT30;46103;52.076;113.488;2023-03-19T21:30:28;0.51;47.12
60242;SHT30;46103;52.076;113.488;2023-03-19T21:33:34;0.47;47.42
60242;SHT30;46103;52.076;113.488;2023-03-19T21:36:41;0.40;47.77
60242;SHT30;46103;52.076;113.488;2023-03-19T21:39:44;0.37;47.75
60242;SHT30;46103;52.076;113.488;2023-03-19T21:42:51;0.34;47.80
60242;SHT30;46103;52.076;113.488;2023-03-19T21:45:56;0.34;47.92
60242;SHT30;46103;52.076;113.488;2023-03-19T21:49:00;0.30;47.91
60242;SHT30;46103;52.076;113.488;2023-03-19T21:52:04;0.26;47.86
60242;SHT30;46103;52.076;113.488;2023-03-19T21:55:11;0.29;48.24
60242;SHT30;46103;52.076;113.488;2023-03-19T21:58:17;0.24;48.13
60242;SHT30;46103;52.076;113.488;2023-03-19T22:01:24;0.17;47.87
60242;SHT30;46103;52.076;113.488;2023-03-19T22:04:28;0.19;47.53
60242;SHT30;46103;52.076;113.488;2023-03-19T22:07:31;0.16;48.02
60242;SHT30;46103;52.076;113.488;2023-03-19T22:10:35;0.16;48.05
60242;SHT30;46103;52.076;113.488;2023-03-19T22:13:40;0.21;48.49
60242;SHT30;46103;52.076;113.488;2023-03-19T22:16:46;0.13;48.86
60242;SHT30;46103;52.076;113.488;2023-03-19T22:19:54;0.09;48.92
60242;SHT30;46103;52.076;113.488;2023-03-19T22:22:58;0.09;48.75
60242;SHT30;46103;52.076;113.488;2023-03-19T22:26:02;0.06;48.20
60242;SHT30;46103;52.076;113.488;2023-03-19T22:29:13;0.07;48.35
60242;SHT30;46103;52.076;113.488;2023-03-19T22:32:17;0.02;48.70
60242;SHT30;46103;52.076;113.488;2023-03-19T22:35:22;0.07;48.72
60242;SHT30;46103;52.076;113.488;2023-03-19T22:38:26;0.02;49.16
60242;SHT30;46103;52.076;113.488;2023-03-19T22:41:34;-0.02;48.74
60242;SHT30;46103;52.076;113.488;2023-03-19T22:44:38;-0.04;48.22
60242;SHT30;46103;52.076;113.488;2023-03-19T22:47:42;-0.18;48.82
60242;SHT30;46103;52.076;113.488;2023-03-19T22:50:46;-0.07;49.10
60242;SHT30;46103;52.076;113.488;2023-03-19T22:53:50;0.03;49.11
60242;SHT30;46103;52.076;113.488;2023-03-19T22:56:54;-0.04;48.31
60242;SHT30;46103;52.076;113.488;2023-03-19T22:59:58;-0.04;48.24
60242;SHT30;46103;52.076;113.488;2023-03-19T23:03:02;0.02;48.24
60242;SHT30;46103;52.076;113.488;2023-03-19T23:06:12;0.09;47.74
60242;SHT30;46103;52.076;113.488;2023-03-19T23:09:33;0.02;47.49
60242;SHT30;46103;52.076;113.488;2023-03-19T23:12:41;0.05;47.42
60242;SHT30;46103;52.076;113.488;2023-03-19T23:15:45;0.00;47.35
60242;SHT30;46103;52.076;113.488;2023-03-19T23:18:53;0.06;47.09
60242;SHT30;46103;52.076;113.488;2023-03-19T23:22:02;0.20;46.91